BOE737 NZQN-NFFN
Flight info
| Callsign | BOE737 |
|---|---|
| Flight time | 3h 47m |
| Altitude | FL390 |
| Route | GIXEL3 SAVLA Y569 PEDPO Q335 TONUS H252 NP H384 AA A578 AGTAG AGTA2B |
| Aircraft | B737/M-SDE2E3FGHIRWXY/LB1 |
Departure
| Time | 2026-05-05 14:52 |
|---|---|
| Airport | Queenstown Airport (NZQN) |
Arrival
| Time | 2026-05-05 18:40 |
|---|---|
| Airport | Nadi International Airport (NFFN) |
| Time | Latitude | Longitude | Altitude | Speed | Heading |
|---|---|---|---|---|---|
| 2026-05-05 14:07 | -45.02271 | 168.74149 | 1172 ft | 0 kts | 253° |
| 2026-05-05 14:41 | -45.02268 | 168.74161 | 1173 ft | 4 kts | 253° |
| 2026-05-05 14:41 | -45.02260 | 168.74197 | 1172 ft | 4 kts | 253° |
| 2026-05-05 14:42 | -45.02254 | 168.74228 | 1168 ft | 1 kts | 252° |
| 2026-05-05 14:42 | -45.02253 | 168.74229 | 1169 ft | 3 kts | 252° |
| 2026-05-05 14:49 | -45.01994 | 168.73612 | 1168 ft | 0 kts | 77° |
| 2026-05-05 14:52 | -45.01987 | 168.73656 | 1169 ft | 28 kts | 77° |
| 2026-05-05 14:52 | -45.01876 | 168.74332 | 1177 ft | 112 kts | 76° |
| 2026-05-05 14:52 | -45.01607 | 168.75701 | 1350 ft | 167 kts | 73° |
| 2026-05-05 14:52 | -45.01221 | 168.77439 | 1775 ft | 204 kts | 55° |
| 2026-05-05 14:53 | -45.00138 | 168.78702 | 2590 ft | 209 kts | 22° |
| 2026-05-05 14:53 | -44.98921 | 168.79814 | 3480 ft | 214 kts | 54° |
| 2026-05-05 14:53 | -44.98541 | 168.81850 | 4520 ft | 227 kts | 96° |
| 2026-05-05 14:53 | -44.99179 | 168.83891 | 5522 ft | 234 kts | 120° |
| 2026-05-05 14:54 | -45.00063 | 168.85930 | 6280 ft | 249 kts | 116° |
| 2026-05-05 14:54 | -45.00841 | 168.88110 | 7278 ft | 251 kts | 111° |
| 2026-05-05 14:54 | -45.01533 | 168.90393 | 8218 ft | 258 kts | 108° |
| 2026-05-05 14:54 | -45.02198 | 168.92792 | 9036 ft | 267 kts | 107° |
| 2026-05-05 14:55 | -45.02851 | 168.95278 | 9938 ft | 273 kts | 102° |
| 2026-05-05 14:55 | -45.02962 | 168.97899 | 10697 ft | 264 kts | 67° |
| 2026-05-05 14:55 | -45.02165 | 169.00101 | 11561 ft | 249 kts | 39° |
| 2026-05-05 14:55 | -45.00822 | 169.01705 | 11983 ft | 268 kts | 37° |
| 2026-05-05 14:56 | -44.99528 | 169.03864 | 12228 ft | 309 kts | 54° |
| 2026-05-05 14:56 | -44.98200 | 169.06364 | 12325 ft | 331 kts | 37° |
| 2026-05-05 14:56 | -44.96192 | 169.07825 | 12925 ft | 327 kts | 9° |
| 2026-05-05 14:57 | -44.92107 | 169.06788 | 14681 ft | 321 kts | 340° |
| 2026-05-05 14:57 | -44.89918 | 169.05953 | 15432 ft | 332 kts | 351° |
| 2026-05-05 14:57 | -44.87576 | 169.05761 | 16157 ft | 343 kts | 2° |
| 2026-05-05 14:57 | -44.85180 | 169.06102 | 16944 ft | 351 kts | 8° |
| 2026-05-05 14:58 | -44.82754 | 169.06715 | 17772 ft | 357 kts | 11° |
| 2026-05-05 14:58 | -44.80304 | 169.07410 | 18538 ft | 364 kts | 11° |
| 2026-05-05 14:58 | -44.77811 | 169.08113 | 19217 ft | 369 kts | 11° |
| 2026-05-05 14:58 | -44.75289 | 169.08803 | 19942 ft | 372 kts | 11° |
| 2026-05-05 14:59 | -44.72736 | 169.09481 | 20633 ft | 376 kts | 11° |
| 2026-05-05 14:59 | -44.70155 | 169.10168 | 21321 ft | 380 kts | 11° |
| 2026-05-05 14:59 | -44.67545 | 169.10879 | 21988 ft | 385 kts | 11° |
| 2026-05-05 14:59 | -44.64886 | 169.11380 | 22490 ft | 390 kts | 358° |
| 2026-05-05 15:00 | -44.62214 | 169.10852 | 23277 ft | 388 kts | 351° |
| 2026-05-05 15:00 | -44.60436 | 169.10420 | 23791 ft | 390 kts | 351° |
| 2026-05-05 15:00 | -44.56832 | 169.09624 | 24442 ft | 398 kts | 352° |
| 2026-05-05 15:00 | -44.54062 | 169.09437 | 25041 ft | 404 kts | 6° |
| 2026-05-05 15:01 | -44.51313 | 169.10394 | 25291 ft | 414 kts | 24° |
| 2026-05-05 15:01 | -44.48777 | 169.12312 | 25297 ft | 416 kts | 30° |
| 2026-05-05 15:01 | -44.46297 | 169.14419 | 25309 ft | 418 kts | 31° |
| 2026-05-05 15:01 | -44.43819 | 169.16536 | 25318 ft | 420 kts | 30° |
| 2026-05-05 15:02 | -44.41314 | 169.18623 | 25333 ft | 420 kts | 29° |
| 2026-05-05 15:02 | -44.38790 | 169.20680 | 25327 ft | 421 kts | 29° |
| 2026-05-05 15:02 | -44.36257 | 169.22713 | 25332 ft | 421 kts | 28° |
| 2026-05-05 15:02 | -44.33708 | 169.24729 | 25341 ft | 421 kts | 27° |
| 2026-05-05 15:03 | -44.31163 | 169.26718 | 25333 ft | 420 kts | 27° |
| 2026-05-05 15:03 | -44.28632 | 169.28708 | 25350 ft | 419 kts | 28° |
| 2026-05-05 15:03 | -44.26099 | 169.30718 | 25346 ft | 418 kts | 28° |
| 2026-05-05 15:03 | -44.23589 | 169.32732 | 25367 ft | 418 kts | 29° |
| 2026-05-05 15:04 | -44.21071 | 169.34775 | 25579 ft | 425 kts | 29° |
| 2026-05-05 15:04 | -44.18504 | 169.36856 | 26211 ft | 426 kts | 30° |
| 2026-05-05 15:04 | -44.15942 | 169.38919 | 26833 ft | 426 kts | 30° |
| 2026-05-05 15:04 | -44.13370 | 169.40988 | 27345 ft | 430 kts | 29° |
| 2026-05-05 15:05 | -44.08145 | 169.45132 | 28199 ft | 438 kts | 28° |
| 2026-05-05 15:05 | -44.05491 | 169.47216 | 28695 ft | 440 kts | 29° |
| 2026-05-05 15:05 | -44.02827 | 169.49313 | 29153 ft | 443 kts | 29° |
| 2026-05-05 15:06 | -44.00138 | 169.51430 | 29566 ft | 446 kts | 29° |
| 2026-05-05 15:06 | -43.97430 | 169.53559 | 30003 ft | 449 kts | 29° |
| 2026-05-05 15:06 | -43.94711 | 169.55692 | 30410 ft | 452 kts | 28° |
| 2026-05-05 15:06 | -43.91980 | 169.57831 | 30709 ft | 455 kts | 29° |
| 2026-05-05 15:07 | -43.89220 | 169.59988 | 31011 ft | 458 kts | 29° |
| 2026-05-05 15:07 | -43.86439 | 169.62158 | 31331 ft | 460 kts | 29° |
| 2026-05-05 15:07 | -43.83683 | 169.64305 | 31617 ft | 462 kts | 29° |
| 2026-05-05 15:07 | -43.80886 | 169.66483 | 31914 ft | 464 kts | 29° |
| 2026-05-05 15:08 | -43.78069 | 169.68673 | 32239 ft | 465 kts | 29° |
| 2026-05-05 15:08 | -43.75272 | 169.70845 | 32616 ft | 463 kts | 29° |
| 2026-05-05 15:08 | -43.72458 | 169.73032 | 32916 ft | 464 kts | 29° |
| 2026-05-05 15:08 | -43.69642 | 169.75214 | 33233 ft | 465 kts | 29° |
| 2026-05-05 15:09 | -43.66850 | 169.77367 | 33959 ft | 454 kts | 29° |
| 2026-05-05 15:09 | -43.64116 | 169.79484 | 34386 ft | 453 kts | 30° |
| 2026-05-05 15:09 | -43.61359 | 169.81595 | 34605 ft | 453 kts | 29° |
| 2026-05-05 15:09 | -43.58608 | 169.83698 | 34830 ft | 454 kts | 29° |
| 2026-05-05 15:10 | -43.55845 | 169.85795 | 34977 ft | 456 kts | 29° |
| 2026-05-05 15:10 | -43.53076 | 169.87903 | 35128 ft | 459 kts | 29° |
| 2026-05-05 15:10 | -43.50281 | 169.90060 | 35368 ft | 458 kts | 30° |
| 2026-05-05 15:10 | -43.47556 | 169.92308 | 35704 ft | 458 kts | 36° |
| 2026-05-05 15:11 | -43.45067 | 169.95048 | 35976 ft | 459 kts | 41° |
| 2026-05-05 15:11 | -43.40303 | 170.00958 | 36256 ft | 463 kts | 43° |
| 2026-05-05 15:11 | -43.37934 | 170.03898 | 36510 ft | 461 kts | 43° |
| 2026-05-05 15:12 | -43.35554 | 170.06794 | 36743 ft | 460 kts | 42° |
| 2026-05-05 15:12 | -43.33141 | 170.09674 | 36930 ft | 460 kts | 41° |
| 2026-05-05 15:12 | -43.30715 | 170.12526 | 37100 ft | 460 kts | 41° |
| 2026-05-05 15:12 | -43.28286 | 170.15354 | 37301 ft | 459 kts | 41° |
| 2026-05-05 15:13 | -43.25850 | 170.18173 | 37528 ft | 458 kts | 41° |
| 2026-05-05 15:13 | -43.23424 | 170.20976 | 37783 ft | 456 kts | 41° |
| 2026-05-05 15:13 | -43.21016 | 170.23756 | 37926 ft | 456 kts | 41° |
| 2026-05-05 15:14 | -43.16175 | 170.29341 | 38148 ft | 458 kts | 41° |
| 2026-05-05 15:14 | -43.13740 | 170.32144 | 38321 ft | 457 kts | 41° |
| 2026-05-05 15:14 | -43.11316 | 170.34934 | 38518 ft | 456 kts | 41° |
| 2026-05-05 15:14 | -43.08888 | 170.37727 | 38656 ft | 456 kts | 41° |
| 2026-05-05 15:15 | -43.06474 | 170.40501 | 38775 ft | 457 kts | 41° |
| 2026-05-05 15:15 | -43.04058 | 170.43274 | 38905 ft | 456 kts | 41° |
| 2026-05-05 15:15 | -43.01619 | 170.46070 | 39014 ft | 456 kts | 41° |
| 2026-05-05 15:16 | -42.96753 | 170.51638 | 39181 ft | 457 kts | 41° |
| 2026-05-05 15:16 | -42.94323 | 170.54415 | 39293 ft | 457 kts | 41° |
| 2026-05-05 15:16 | -42.91893 | 170.57188 | 39376 ft | 456 kts | 41° |
| 2026-05-05 15:17 | -42.87028 | 170.62733 | 39403 ft | 458 kts | 41° |
| 2026-05-05 15:17 | -42.82148 | 170.68281 | 39404 ft | 458 kts | 41° |
| 2026-05-05 15:18 | -42.77259 | 170.73827 | 39412 ft | 459 kts | 41° |
| 2026-05-05 15:18 | -42.72364 | 170.79370 | 39412 ft | 459 kts | 41° |
| 2026-05-05 15:19 | -42.67455 | 170.84915 | 39408 ft | 460 kts | 41° |
| 2026-05-05 15:19 | -42.62541 | 170.90454 | 39400 ft | 460 kts | 41° |
| 2026-05-05 15:20 | -42.57629 | 170.95980 | 39412 ft | 460 kts | 41° |
| 2026-05-05 15:20 | -42.52713 | 171.01496 | 39412 ft | 459 kts | 41° |
| 2026-05-05 15:21 | -42.47798 | 171.06999 | 39415 ft | 459 kts | 41° |
| 2026-05-05 15:21 | -42.42879 | 171.12494 | 39412 ft | 459 kts | 41° |
| 2026-05-05 15:22 | -42.37968 | 171.17966 | 39412 ft | 458 kts | 41° |
| 2026-05-05 15:22 | -42.33051 | 171.23432 | 39421 ft | 458 kts | 41° |
| 2026-05-05 15:23 | -42.28146 | 171.28872 | 39405 ft | 458 kts | 41° |
| 2026-05-05 15:23 | -42.23228 | 171.34310 | 39417 ft | 457 kts | 41° |
| 2026-05-05 15:24 | -42.18309 | 171.39733 | 39420 ft | 458 kts | 41° |
| 2026-05-05 15:24 | -42.13380 | 171.45148 | 39422 ft | 458 kts | 41° |
| 2026-05-05 15:25 | -42.08457 | 171.50529 | 39408 ft | 458 kts | 41° |
| 2026-05-05 15:25 | -42.03496 | 171.55899 | 39421 ft | 459 kts | 41° |
| 2026-05-05 15:26 | -41.98561 | 171.61312 | 39420 ft | 459 kts | 42° |
| 2026-05-05 15:26 | -41.93670 | 171.66824 | 39431 ft | 460 kts | 43° |
| 2026-05-05 15:27 | -41.88766 | 171.72299 | 39413 ft | 460 kts | 42° |
| 2026-05-05 15:27 | -41.83827 | 171.77720 | 39424 ft | 460 kts | 42° |
| 2026-05-05 15:28 | -41.78868 | 171.83114 | 39433 ft | 460 kts | 41° |
| 2026-05-05 15:28 | -41.73912 | 171.88488 | 39422 ft | 460 kts | 41° |
| 2026-05-05 15:29 | -41.68943 | 171.93867 | 39414 ft | 460 kts | 41° |
| 2026-05-05 15:29 | -41.63973 | 171.99238 | 39424 ft | 460 kts | 41° |
| 2026-05-05 15:30 | -41.59000 | 172.04602 | 39424 ft | 461 kts | 42° |
| 2026-05-05 15:30 | -41.54020 | 172.09962 | 39414 ft | 461 kts | 41° |
| 2026-05-05 15:31 | -41.49034 | 172.15318 | 39419 ft | 461 kts | 42° |
| 2026-05-05 15:31 | -41.44045 | 172.20667 | 39421 ft | 461 kts | 42° |
| 2026-05-05 15:32 | -41.39054 | 172.26006 | 39412 ft | 461 kts | 42° |
| 2026-05-05 15:32 | -41.34053 | 172.31345 | 39408 ft | 462 kts | 41° |
| 2026-05-05 15:33 | -41.29052 | 172.36673 | 39405 ft | 462 kts | 42° |
| 2026-05-05 15:33 | -41.24048 | 172.41994 | 39413 ft | 462 kts | 42° |
| 2026-05-05 15:34 | -41.19038 | 172.47309 | 39419 ft | 462 kts | 42° |
| 2026-05-05 15:34 | -41.14026 | 172.52616 | 39415 ft | 462 kts | 42° |
| 2026-05-05 15:35 | -41.09007 | 172.57921 | 39397 ft | 463 kts | 42° |
| 2026-05-05 15:35 | -41.03979 | 172.63223 | 39405 ft | 463 kts | 42° |
| 2026-05-05 15:36 | -40.98953 | 172.68513 | 39402 ft | 463 kts | 41° |
| 2026-05-05 15:36 | -40.93920 | 172.73798 | 39405 ft | 463 kts | 42° |
| 2026-05-05 15:37 | -40.88887 | 172.79074 | 39401 ft | 463 kts | 42° |
| 2026-05-05 15:37 | -40.83852 | 172.84340 | 39403 ft | 463 kts | 42° |
| 2026-05-05 15:38 | -40.78815 | 172.89597 | 39406 ft | 463 kts | 42° |
| 2026-05-05 15:38 | -40.73768 | 172.94855 | 39402 ft | 463 kts | 41° |
| 2026-05-05 15:39 | -40.68723 | 173.00099 | 39390 ft | 463 kts | 42° |
| 2026-05-05 15:39 | -40.63690 | 173.05320 | 39396 ft | 463 kts | 41° |
| 2026-05-05 15:40 | -40.58632 | 173.10555 | 39397 ft | 464 kts | 41° |
| 2026-05-05 15:40 | -40.53568 | 173.15786 | 39394 ft | 464 kts | 41° |
| 2026-05-05 15:41 | -40.48495 | 173.21013 | 39394 ft | 464 kts | 41° |
| 2026-05-05 15:41 | -40.43463 | 173.26188 | 39394 ft | 464 kts | 41° |
| 2026-05-05 15:42 | -40.38387 | 173.31395 | 39396 ft | 464 kts | 41° |
| 2026-05-05 15:42 | -40.33311 | 173.36589 | 39396 ft | 464 kts | 41° |
| 2026-05-05 15:43 | -40.28230 | 173.41774 | 39387 ft | 464 kts | 41° |
| 2026-05-05 15:43 | -40.23145 | 173.46947 | 39396 ft | 464 kts | 41° |
| 2026-05-05 15:44 | -40.18062 | 173.52097 | 39397 ft | 463 kts | 41° |
| 2026-05-05 15:44 | -40.12961 | 173.57232 | 39398 ft | 463 kts | 41° |
| 2026-05-05 15:45 | -40.07853 | 173.62347 | 39408 ft | 463 kts | 41° |
| 2026-05-05 15:45 | -40.02792 | 173.67529 | 39396 ft | 464 kts | 42° |
| 2026-05-05 15:46 | -39.97709 | 173.72692 | 39396 ft | 464 kts | 41° |
| 2026-05-05 15:46 | -39.92604 | 173.77795 | 39414 ft | 464 kts | 41° |
| 2026-05-05 15:47 | -39.87333 | 173.82601 | 39395 ft | 462 kts | 30° |
| 2026-05-05 15:47 | -39.81352 | 173.85502 | 39461 ft | 459 kts | 21° |
| 2026-05-05 15:48 | -39.75259 | 173.88013 | 39412 ft | 461 kts | 21° |
| 2026-05-05 15:48 | -39.69137 | 173.90510 | 39402 ft | 462 kts | 21° |
| 2026-05-05 15:49 | -39.63014 | 173.93009 | 39406 ft | 463 kts | 20° |
| 2026-05-05 15:49 | -39.56898 | 173.95482 | 39410 ft | 463 kts | 20° |
| 2026-05-05 15:50 | -39.50840 | 173.97933 | 39421 ft | 463 kts | 21° |
| 2026-05-05 15:50 | -39.44729 | 174.00528 | 39412 ft | 464 kts | 21° |
| 2026-05-05 15:51 | -39.38612 | 174.03138 | 39409 ft | 464 kts | 21° |
| 2026-05-05 15:51 | -39.32481 | 174.05684 | 39420 ft | 464 kts | 21° |
| 2026-05-05 15:52 | -39.26327 | 174.08195 | 39428 ft | 465 kts | 20° |
| 2026-05-05 15:52 | -39.20165 | 174.10688 | 39426 ft | 465 kts | 20° |
| 2026-05-05 15:53 | -39.14010 | 174.13171 | 39423 ft | 464 kts | 20° |
| 2026-05-05 15:53 | -39.07853 | 174.15623 | 39425 ft | 464 kts | 20° |
| 2026-05-05 15:54 | -39.01728 | 174.18104 | 39433 ft | 464 kts | 21° |
| 2026-05-05 15:54 | -38.95543 | 174.20392 | 39423 ft | 463 kts | 18° |
| 2026-05-05 15:55 | -38.89329 | 174.22443 | 39427 ft | 462 kts | 17° |
| 2026-05-05 15:55 | -38.83098 | 174.24430 | 39429 ft | 462 kts | 17° |
| 2026-05-05 15:56 | -38.76875 | 174.26412 | 39422 ft | 462 kts | 17° |
| 2026-05-05 15:56 | -38.70648 | 174.28400 | 39418 ft | 462 kts | 17° |
| 2026-05-05 15:57 | -38.64442 | 174.30382 | 39422 ft | 462 kts | 17° |
| 2026-05-05 15:57 | -38.58217 | 174.32366 | 39417 ft | 462 kts | 17° |
| 2026-05-05 15:58 | -38.51988 | 174.34347 | 39424 ft | 463 kts | 17° |
| 2026-05-05 15:58 | -38.45751 | 174.36325 | 39418 ft | 463 kts | 17° |
| 2026-05-05 15:59 | -38.39507 | 174.38300 | 39428 ft | 463 kts | 17° |
| 2026-05-05 15:59 | -38.33602 | 174.40163 | 39428 ft | 463 kts | 17° |
| 2026-05-05 16:00 | -38.27349 | 174.42130 | 39422 ft | 464 kts | 17° |
| 2026-05-05 16:00 | -38.21097 | 174.44087 | 39429 ft | 464 kts | 17° |
| 2026-05-05 16:01 | -38.14805 | 174.46047 | 39437 ft | 469 kts | 17° |
| 2026-05-05 16:01 | -38.08446 | 174.48009 | 39433 ft | 473 kts | 16° |
| 2026-05-05 16:02 | -38.02052 | 174.49949 | 39426 ft | 476 kts | 16° |
| 2026-05-05 16:02 | -37.95632 | 174.51997 | 39436 ft | 479 kts | 17° |
| 2026-05-05 16:03 | -37.89190 | 174.54147 | 39418 ft | 481 kts | 17° |
| 2026-05-05 16:03 | -37.82713 | 174.56243 | 39416 ft | 482 kts | 17° |
| 2026-05-05 16:04 | -37.76218 | 174.58285 | 39421 ft | 482 kts | 16° |
| 2026-05-05 16:04 | -37.69724 | 174.60306 | 39421 ft | 482 kts | 16° |
| 2026-05-05 16:05 | -37.63222 | 174.62327 | 39422 ft | 482 kts | 16° |
| 2026-05-05 16:05 | -37.56729 | 174.64342 | 39410 ft | 482 kts | 16° |
| 2026-05-05 16:06 | -37.50238 | 174.66354 | 39421 ft | 481 kts | 16° |
| 2026-05-05 16:06 | -37.43753 | 174.68358 | 39429 ft | 481 kts | 16° |
| 2026-05-05 16:07 | -37.37272 | 174.70355 | 39415 ft | 480 kts | 16° |
| 2026-05-05 16:07 | -37.30795 | 174.72345 | 39410 ft | 480 kts | 16° |
| 2026-05-05 16:08 | -37.24325 | 174.74323 | 39422 ft | 480 kts | 16° |
| 2026-05-05 16:08 | -37.17844 | 174.76293 | 39425 ft | 480 kts | 16° |
| 2026-05-05 16:09 | -37.11365 | 174.78239 | 39418 ft | 480 kts | 15° |
| 2026-05-05 16:09 | -37.04890 | 174.80164 | 39434 ft | 479 kts | 16° |
| 2026-05-05 16:10 | -36.98393 | 174.81997 | 39416 ft | 478 kts | 11° |
| 2026-05-05 16:10 | -36.91835 | 174.83188 | 39439 ft | 478 kts | 9° |
| 2026-05-05 16:11 | -36.85251 | 174.84244 | 39405 ft | 478 kts | 9° |
| 2026-05-05 16:12 | -36.72086 | 174.86312 | 39406 ft | 479 kts | 9° |
| 2026-05-05 16:13 | -36.55597 | 174.88932 | 39407 ft | 479 kts | 9° |
| 2026-05-05 16:13 | -36.48997 | 174.89979 | 39407 ft | 479 kts | 9° |
| 2026-05-05 16:14 | -36.35799 | 174.92065 | 39396 ft | 479 kts | 9° |
| 2026-05-05 16:15 | -36.22582 | 174.94147 | 39399 ft | 480 kts | 9° |
| 2026-05-05 16:16 | -36.09407 | 174.96216 | 39393 ft | 480 kts | 9° |
| 2026-05-05 16:17 | -35.99489 | 174.97769 | 39406 ft | 480 kts | 9° |
| 2026-05-05 16:18 | -35.89573 | 174.99317 | 39393 ft | 480 kts | 9° |
| 2026-05-05 16:19 | -35.79660 | 175.00860 | 39394 ft | 480 kts | 9° |
| 2026-05-05 16:19 | -35.69745 | 175.02401 | 39399 ft | 480 kts | 9° |
| 2026-05-05 16:20 | -35.56522 | 175.04448 | 39391 ft | 480 kts | 9° |
| 2026-05-05 16:22 | -35.40036 | 175.06991 | 39373 ft | 478 kts | 9° |
| 2026-05-05 16:23 | -35.26954 | 175.09002 | 39385 ft | 477 kts | 9° |
| 2026-05-05 16:23 | -35.17119 | 175.10509 | 39387 ft | 477 kts | 9° |
| 2026-05-05 16:24 | -35.10528 | 175.11517 | 39378 ft | 478 kts | 9° |
| 2026-05-05 16:25 | -35.00655 | 175.13023 | 39387 ft | 478 kts | 9° |
| 2026-05-05 16:25 | -34.90793 | 175.14523 | 39387 ft | 479 kts | 9° |
| 2026-05-05 16:26 | -34.77586 | 175.16527 | 39377 ft | 480 kts | 9° |
| 2026-05-05 16:27 | -34.70965 | 175.17528 | 39376 ft | 480 kts | 9° |
| 2026-05-05 16:27 | -34.64341 | 175.18528 | 39373 ft | 481 kts | 9° |
| 2026-05-05 16:28 | -34.57711 | 175.19527 | 39367 ft | 481 kts | 9° |
| 2026-05-05 16:28 | -34.51072 | 175.20525 | 39374 ft | 482 kts | 9° |
| 2026-05-05 16:29 | -34.44428 | 175.21522 | 39372 ft | 482 kts | 9° |
| 2026-05-05 16:29 | -34.37774 | 175.22518 | 39359 ft | 483 kts | 9° |
| 2026-05-05 16:30 | -34.31115 | 175.23513 | 39370 ft | 483 kts | 9° |
| 2026-05-05 16:30 | -34.24448 | 175.24506 | 39371 ft | 484 kts | 9° |
| 2026-05-05 16:31 | -34.17807 | 175.25493 | 39365 ft | 484 kts | 9° |
| 2026-05-05 16:31 | -34.11129 | 175.26481 | 39352 ft | 485 kts | 9° |
| 2026-05-05 16:32 | -34.04443 | 175.27468 | 39364 ft | 485 kts | 9° |
| 2026-05-05 16:32 | -33.97753 | 175.28449 | 39363 ft | 486 kts | 9° |
| 2026-05-05 16:33 | -33.91053 | 175.29425 | 39359 ft | 486 kts | 9° |
| 2026-05-05 16:33 | -33.84355 | 175.30389 | 39347 ft | 486 kts | 8° |
| 2026-05-05 16:34 | -33.77644 | 175.31329 | 39358 ft | 486 kts | 8° |
| 2026-05-05 16:34 | -33.70934 | 175.32279 | 39365 ft | 487 kts | 9° |
| 2026-05-05 16:35 | -33.64221 | 175.33374 | 39352 ft | 488 kts | 10° |
| 2026-05-05 16:35 | -33.57509 | 175.34500 | 39341 ft | 488 kts | 9° |
| 2026-05-05 16:36 | -33.50780 | 175.35556 | 39352 ft | 488 kts | 9° |
| 2026-05-05 16:36 | -33.44053 | 175.36567 | 39352 ft | 489 kts | 9° |
| 2026-05-05 16:37 | -33.37319 | 175.37567 | 39349 ft | 489 kts | 9° |
| 2026-05-05 16:37 | -33.30584 | 175.38568 | 39348 ft | 489 kts | 9° |
| 2026-05-05 16:38 | -33.23869 | 175.39568 | 39348 ft | 489 kts | 9° |
| 2026-05-05 16:38 | -33.17128 | 175.40570 | 39348 ft | 489 kts | 9° |
| 2026-05-05 16:39 | -33.10396 | 175.41570 | 39347 ft | 489 kts | 9° |
| 2026-05-05 16:39 | -33.03662 | 175.42569 | 39333 ft | 489 kts | 9° |
| 2026-05-05 16:40 | -32.96931 | 175.43566 | 39346 ft | 488 kts | 9° |
| 2026-05-05 16:40 | -32.90260 | 175.44551 | 39339 ft | 488 kts | 9° |
| 2026-05-05 16:41 | -32.83532 | 175.45543 | 39337 ft | 488 kts | 9° |
| 2026-05-05 16:41 | -32.76809 | 175.46534 | 39330 ft | 488 kts | 9° |
| 2026-05-05 16:42 | -32.70094 | 175.47522 | 39333 ft | 488 kts | 9° |
| 2026-05-05 16:42 | -32.63373 | 175.48509 | 39328 ft | 488 kts | 9° |
| 2026-05-05 16:43 | -32.56651 | 175.49494 | 39330 ft | 488 kts | 9° |
| 2026-05-05 16:43 | -32.49923 | 175.50479 | 39317 ft | 488 kts | 9° |
| 2026-05-05 16:44 | -32.43189 | 175.51463 | 39328 ft | 488 kts | 9° |
| 2026-05-05 16:44 | -32.36470 | 175.52444 | 39320 ft | 489 kts | 9° |
| 2026-05-05 16:45 | -32.29738 | 175.53425 | 39320 ft | 489 kts | 9° |
| 2026-05-05 16:45 | -32.23081 | 175.54393 | 39315 ft | 489 kts | 8° |
| 2026-05-05 16:46 | -32.16334 | 175.55373 | 39317 ft | 490 kts | 8° |
| 2026-05-05 16:46 | -32.09580 | 175.56352 | 39313 ft | 490 kts | 8° |
| 2026-05-05 16:47 | -32.02820 | 175.57330 | 39311 ft | 491 kts | 8° |
| 2026-05-05 16:47 | -31.96057 | 175.58307 | 39300 ft | 491 kts | 8° |
| 2026-05-05 16:48 | -31.89291 | 175.59283 | 39316 ft | 491 kts | 8° |
| 2026-05-05 16:48 | -31.82509 | 175.60260 | 39311 ft | 492 kts | 8° |
| 2026-05-05 16:49 | -31.75732 | 175.61234 | 39301 ft | 492 kts | 8° |
| 2026-05-05 16:49 | -31.68953 | 175.62206 | 39296 ft | 492 kts | 8° |
| 2026-05-05 16:50 | -31.62154 | 175.63179 | 39307 ft | 493 kts | 8° |
| 2026-05-05 16:50 | -31.55357 | 175.64150 | 39300 ft | 493 kts | 8° |
| 2026-05-05 16:51 | -31.48557 | 175.65119 | 39299 ft | 494 kts | 8° |
| 2026-05-05 16:51 | -31.41748 | 175.66086 | 39281 ft | 494 kts | 8° |
| 2026-05-05 16:52 | -31.34935 | 175.67052 | 39294 ft | 494 kts | 8° |
| 2026-05-05 16:52 | -31.28111 | 175.68015 | 39293 ft | 495 kts | 8° |
| 2026-05-05 16:53 | -31.21286 | 175.68973 | 39292 ft | 496 kts | 8° |
| 2026-05-05 16:53 | -31.14450 | 175.69928 | 39280 ft | 496 kts | 8° |
| 2026-05-05 16:54 | -31.07603 | 175.70874 | 39288 ft | 497 kts | 8° |
| 2026-05-05 16:54 | -31.00745 | 175.71804 | 39285 ft | 497 kts | 8° |
| 2026-05-05 16:55 | -30.93902 | 175.72708 | 39289 ft | 497 kts | 8° |
| 2026-05-05 16:55 | -30.87044 | 175.73732 | 39271 ft | 498 kts | 9° |
| 2026-05-05 16:56 | -30.80182 | 175.74830 | 39273 ft | 499 kts | 9° |
| 2026-05-05 16:56 | -30.73314 | 175.75858 | 39281 ft | 499 kts | 8° |
| 2026-05-05 16:57 | -30.66433 | 175.76834 | 39281 ft | 499 kts | 8° |
| 2026-05-05 16:57 | -30.59546 | 175.77793 | 39276 ft | 500 kts | 8° |
| 2026-05-05 16:58 | -30.52657 | 175.78753 | 39273 ft | 500 kts | 8° |
| 2026-05-05 16:58 | -30.45771 | 175.79714 | 39271 ft | 500 kts | 8° |
| 2026-05-05 16:59 | -30.38883 | 175.80677 | 39277 ft | 499 kts | 8° |
| 2026-05-05 16:59 | -30.31999 | 175.81640 | 39256 ft | 498 kts | 8° |
| 2026-05-05 17:00 | -30.25140 | 175.82592 | 39259 ft | 498 kts | 8° |
| 2026-05-05 17:00 | -30.18286 | 175.83544 | 39266 ft | 497 kts | 8° |
| 2026-05-05 17:01 | -30.11434 | 175.84495 | 39263 ft | 497 kts | 8° |
| 2026-05-05 17:01 | -30.04584 | 175.85445 | 39243 ft | 496 kts | 8° |
| 2026-05-05 17:02 | -29.97733 | 175.86393 | 39251 ft | 497 kts | 8° |
| 2026-05-05 17:02 | -29.90870 | 175.87342 | 39262 ft | 498 kts | 8° |
| 2026-05-05 17:03 | -29.84004 | 175.88289 | 39254 ft | 499 kts | 8° |
| 2026-05-05 17:03 | -29.77128 | 175.89237 | 39254 ft | 500 kts | 8° |
| 2026-05-05 17:04 | -29.70233 | 175.90186 | 39248 ft | 500 kts | 8° |
| 2026-05-05 17:04 | -29.63328 | 175.91135 | 39250 ft | 501 kts | 8° |
| 2026-05-05 17:05 | -29.56525 | 175.92068 | 39251 ft | 502 kts | 8° |
| 2026-05-05 17:05 | -29.49603 | 175.93016 | 39245 ft | 502 kts | 8° |
| 2026-05-05 17:06 | -29.42671 | 175.93965 | 39234 ft | 503 kts | 7° |
| 2026-05-05 17:06 | -29.35728 | 175.94914 | 39240 ft | 503 kts | 7° |
| 2026-05-05 17:07 | -29.28784 | 175.95860 | 39236 ft | 504 kts | 7° |
| 2026-05-05 17:07 | -29.21833 | 175.96808 | 39233 ft | 504 kts | 7° |
| 2026-05-05 17:08 | -29.14873 | 175.97755 | 39218 ft | 505 kts | 7° |
| 2026-05-05 17:08 | -29.07901 | 175.98703 | 39234 ft | 506 kts | 7° |
| 2026-05-05 17:09 | -29.00913 | 175.99650 | 39227 ft | 507 kts | 7° |
| 2026-05-05 17:09 | -28.93916 | 176.00597 | 39223 ft | 508 kts | 7° |
| 2026-05-05 17:10 | -28.86906 | 176.01545 | 39210 ft | 509 kts | 7° |
| 2026-05-05 17:10 | -28.79888 | 176.02492 | 39223 ft | 509 kts | 7° |
| 2026-05-05 17:11 | -28.72856 | 176.03439 | 39223 ft | 510 kts | 7° |
| 2026-05-05 17:11 | -28.65816 | 176.04386 | 39218 ft | 511 kts | 7° |
| 2026-05-05 17:12 | -28.58772 | 176.05331 | 39194 ft | 511 kts | 7° |
| 2026-05-05 17:12 | -28.51709 | 176.06278 | 39210 ft | 512 kts | 7° |
| 2026-05-05 17:13 | -28.45026 | 176.07172 | 39208 ft | 511 kts | 7° |
| 2026-05-05 17:13 | -28.38115 | 176.08096 | 39192 ft | 493 kts | 7° |
| 2026-05-05 17:14 | -28.31357 | 176.08996 | 39202 ft | 489 kts | 7° |
| 2026-05-05 17:14 | -28.24616 | 176.09888 | 39199 ft | 489 kts | 6° |
| 2026-05-05 17:15 | -28.17900 | 176.10773 | 39205 ft | 491 kts | 6° |
| 2026-05-05 17:15 | -28.11111 | 176.11666 | 39202 ft | 494 kts | 6° |
| 2026-05-05 17:16 | -28.04282 | 176.12560 | 39202 ft | 496 kts | 6° |
| 2026-05-05 17:16 | -27.97409 | 176.13453 | 39188 ft | 499 kts | 6° |
| 2026-05-05 17:17 | -27.90506 | 176.14334 | 39188 ft | 502 kts | 6° |
| 2026-05-05 17:17 | -27.83568 | 176.15187 | 39200 ft | 504 kts | 6° |
| 2026-05-05 17:18 | -27.76610 | 176.16137 | 39189 ft | 506 kts | 7° |
| 2026-05-05 17:18 | -27.69635 | 176.17195 | 39178 ft | 506 kts | 7° |
| 2026-05-05 17:19 | -27.62677 | 176.18035 | 39126 ft | 495 kts | 343° |
| 2026-05-05 17:19 | -27.59338 | 176.17308 | 39019 ft | 492 kts | 348° |
| 2026-05-05 17:19 | -27.55893 | 176.17313 | 39132 ft | 504 kts | 2° |
| 2026-05-05 17:20 | -27.49010 | 176.18829 | 39188 ft | 507 kts | 8° |
| 2026-05-05 17:20 | -27.42142 | 176.20405 | 39170 ft | 503 kts | 5° |
| 2026-05-05 17:21 | -27.35248 | 176.21545 | 39176 ft | 500 kts | 2° |
| 2026-05-05 17:22 | -27.24943 | 176.22881 | 39174 ft | 497 kts | 1° |
| 2026-05-05 17:22 | -27.18091 | 176.23751 | 39172 ft | 496 kts | 1° |
| 2026-05-05 17:23 | -27.11252 | 176.24640 | 39142 ft | 495 kts | 1° |
| 2026-05-05 17:23 | -27.04427 | 176.25536 | 39161 ft | 495 kts | 1° |
| 2026-05-05 17:24 | -26.97595 | 176.26434 | 39172 ft | 496 kts | 1° |
| 2026-05-05 17:24 | -26.90741 | 176.27332 | 39167 ft | 497 kts | 1° |
| 2026-05-05 17:25 | -26.83892 | 176.28228 | 39170 ft | 499 kts | 1° |
| 2026-05-05 17:25 | -26.77000 | 176.29128 | 39152 ft | 501 kts | 1° |
| 2026-05-05 17:26 | -26.70074 | 176.30032 | 39166 ft | 503 kts | 1° |
| 2026-05-05 17:26 | -26.63123 | 176.30938 | 39162 ft | 505 kts | 1° |
| 2026-05-05 17:27 | -26.56155 | 176.31846 | 39155 ft | 507 kts | 1° |
| 2026-05-05 17:27 | -26.49153 | 176.32757 | 39131 ft | 508 kts | 1° |
| 2026-05-05 17:28 | -26.42146 | 176.33668 | 39142 ft | 508 kts | 1° |
| 2026-05-05 17:28 | -26.35146 | 176.34636 | 39155 ft | 508 kts | 1° |
| 2026-05-05 17:29 | -26.28142 | 176.35541 | 39144 ft | 508 kts | 0° |
| 2026-05-05 17:29 | -26.21121 | 176.36409 | 39111 ft | 508 kts | 0° |
| 2026-05-05 17:30 | -26.14106 | 176.37298 | 39134 ft | 508 kts | 1° |
| 2026-05-05 17:30 | -26.07091 | 176.38201 | 39135 ft | 509 kts | 1° |
| 2026-05-05 17:31 | -26.00112 | 176.39107 | 39108 ft | 496 kts | 1° |
| 2026-05-05 17:31 | -25.96739 | 176.39550 | 39102 ft | 482 kts | 0° |
| 2026-05-05 17:31 | -25.93439 | 176.39980 | 39126 ft | 479 kts | 0° |
| 2026-05-05 17:31 | -25.90176 | 176.40401 | 39077 ft | 467 kts | 360° |
| 2026-05-05 17:32 | -25.86957 | 176.40814 | 39115 ft | 468 kts | 360° |
| 2026-05-05 17:32 | -25.80387 | 176.41640 | 39141 ft | 484 kts | 0° |
| 2026-05-05 17:33 | -25.73605 | 176.42499 | 39144 ft | 499 kts | 0° |
| 2026-05-05 17:33 | -25.66620 | 176.43394 | 39138 ft | 512 kts | 0° |
| 2026-05-05 17:34 | -25.59539 | 176.44308 | 39089 ft | 515 kts | 0° |
| 2026-05-05 17:34 | -25.52434 | 176.45223 | 39110 ft | 515 kts | 0° |
| 2026-05-05 17:35 | -25.45334 | 176.46132 | 39102 ft | 515 kts | 0° |
| 2026-05-05 17:35 | -25.38237 | 176.47038 | 39107 ft | 514 kts | 0° |
| 2026-05-05 17:36 | -25.31154 | 176.47941 | 39108 ft | 513 kts | 0° |
| 2026-05-05 17:36 | -25.24095 | 176.48840 | 39103 ft | 510 kts | 0° |
| 2026-05-05 17:37 | -25.17062 | 176.49734 | 39094 ft | 509 kts | 0° |
| 2026-05-05 17:37 | -25.10047 | 176.50625 | 39095 ft | 508 kts | 0° |
| 2026-05-05 17:38 | -25.03048 | 176.51513 | 39101 ft | 507 kts | 0° |
| 2026-05-05 17:38 | -24.96053 | 176.52399 | 39073 ft | 506 kts | 0° |
| 2026-05-05 17:39 | -24.89081 | 176.53279 | 39090 ft | 505 kts | 0° |
| 2026-05-05 17:39 | -24.82123 | 176.54157 | 39095 ft | 504 kts | 360° |
| 2026-05-05 17:40 | -24.75165 | 176.55033 | 39094 ft | 504 kts | 360° |
| 2026-05-05 17:40 | -24.68212 | 176.55908 | 39095 ft | 504 kts | 360° |
| 2026-05-05 17:41 | -24.61257 | 176.56782 | 39089 ft | 504 kts | 360° |
| 2026-05-05 17:41 | -24.54299 | 176.57656 | 39088 ft | 505 kts | 360° |
| 2026-05-05 17:42 | -24.47327 | 176.58531 | 39086 ft | 505 kts | 360° |
| 2026-05-05 17:42 | -24.40362 | 176.59403 | 39082 ft | 506 kts | 360° |
| 2026-05-05 17:43 | -24.33377 | 176.60278 | 39061 ft | 506 kts | 360° |
| 2026-05-05 17:43 | -24.26407 | 176.61150 | 39076 ft | 506 kts | 360° |
| 2026-05-05 17:44 | -24.19445 | 176.62020 | 39076 ft | 506 kts | 360° |
| 2026-05-05 17:44 | -24.12465 | 176.62891 | 39076 ft | 506 kts | 360° |
| 2026-05-05 17:45 | -24.05490 | 176.63760 | 39071 ft | 506 kts | 360° |
| 2026-05-05 17:45 | -23.98515 | 176.64629 | 39067 ft | 505 kts | 360° |
| 2026-05-05 17:46 | -23.91557 | 176.65495 | 39060 ft | 504 kts | 360° |
| 2026-05-05 17:46 | -23.84599 | 176.66359 | 39064 ft | 504 kts | 360° |
| 2026-05-05 17:47 | -23.77650 | 176.67221 | 39060 ft | 504 kts | 360° |
| 2026-05-05 17:47 | -23.70698 | 176.68083 | 39029 ft | 503 kts | 360° |
| 2026-05-05 17:48 | -23.63764 | 176.68942 | 39052 ft | 502 kts | 360° |
| 2026-05-05 17:48 | -23.56844 | 176.69798 | 39050 ft | 502 kts | 360° |
| 2026-05-05 17:49 | -23.49924 | 176.70653 | 39049 ft | 501 kts | 360° |
| 2026-05-05 17:49 | -23.43014 | 176.71505 | 39047 ft | 501 kts | 360° |
| 2026-05-05 17:50 | -23.36105 | 176.72357 | 39038 ft | 500 kts | 360° |
| 2026-05-05 17:50 | -23.29212 | 176.73207 | 39035 ft | 499 kts | 360° |
| 2026-05-05 17:51 | -23.22326 | 176.74054 | 39048 ft | 499 kts | 360° |
| 2026-05-05 17:51 | -23.15453 | 176.74899 | 39036 ft | 498 kts | 360° |
| 2026-05-05 17:52 | -23.08574 | 176.75743 | 39034 ft | 498 kts | 360° |
| 2026-05-05 17:52 | -23.01707 | 176.76586 | 39023 ft | 497 kts | 360° |
| 2026-05-05 17:53 | -22.94848 | 176.77426 | 39023 ft | 496 kts | 360° |
| 2026-05-05 17:53 | -22.88004 | 176.78264 | 39025 ft | 496 kts | 360° |
| 2026-05-05 17:54 | -22.81165 | 176.79100 | 39022 ft | 496 kts | 360° |
| 2026-05-05 17:54 | -22.74327 | 176.79936 | 38997 ft | 495 kts | 360° |
| 2026-05-05 17:55 | -22.67500 | 176.80769 | 39012 ft | 494 kts | 360° |
| 2026-05-05 17:55 | -22.60680 | 176.81601 | 39018 ft | 494 kts | 360° |
| 2026-05-05 17:56 | -22.53863 | 176.82431 | 39018 ft | 494 kts | 360° |
| 2026-05-05 17:56 | -22.47054 | 176.83259 | 39016 ft | 493 kts | 360° |
| 2026-05-05 17:57 | -22.40254 | 176.84086 | 38996 ft | 493 kts | 0° |
| 2026-05-05 17:57 | -22.33455 | 176.84912 | 39004 ft | 492 kts | 0° |
| 2026-05-05 17:58 | -22.26666 | 176.85736 | 39005 ft | 492 kts | 0° |
| 2026-05-05 17:58 | -22.19888 | 176.86557 | 39006 ft | 491 kts | 0° |
| 2026-05-05 17:59 | -22.13104 | 176.87378 | 39002 ft | 491 kts | 0° |
| 2026-05-05 17:59 | -22.06330 | 176.88198 | 38995 ft | 490 kts | 0° |
| 2026-05-05 18:00 | -21.99561 | 176.89016 | 38987 ft | 490 kts | 0° |
| 2026-05-05 18:00 | -21.92813 | 176.89831 | 38997 ft | 489 kts | 0° |
| 2026-05-05 18:01 | -21.86059 | 176.90645 | 39002 ft | 489 kts | 0° |
| 2026-05-05 18:01 | -21.79309 | 176.91459 | 38994 ft | 489 kts | 0° |
| 2026-05-05 18:02 | -21.72566 | 176.92271 | 38982 ft | 488 kts | 0° |
| 2026-05-05 18:02 | -21.65845 | 176.93079 | 38986 ft | 488 kts | 0° |
| 2026-05-05 18:03 | -21.58953 | 176.93908 | 38985 ft | 487 kts | 0° |
| 2026-05-05 18:03 | -21.52231 | 176.94714 | 38998 ft | 487 kts | 0° |
| 2026-05-05 18:04 | -21.45511 | 176.95518 | 38984 ft | 487 kts | 0° |
| 2026-05-05 18:04 | -21.38793 | 176.96325 | 38982 ft | 487 kts | 0° |
| 2026-05-05 18:05 | -21.32080 | 176.97129 | 38977 ft | 486 kts | 0° |
| 2026-05-05 18:05 | -21.25371 | 176.97932 | 38977 ft | 486 kts | 0° |
| 2026-05-05 18:06 | -21.18664 | 176.98733 | 38982 ft | 486 kts | 0° |
| 2026-05-05 18:06 | -21.11959 | 176.99534 | 38972 ft | 486 kts | 0° |
| 2026-05-05 18:07 | -21.05260 | 177.00333 | 38962 ft | 485 kts | 0° |
| 2026-05-05 18:07 | -20.98569 | 177.01130 | 38968 ft | 485 kts | 0° |
| 2026-05-05 18:08 | -20.91884 | 177.01926 | 38971 ft | 485 kts | 0° |
| 2026-05-05 18:08 | -20.85195 | 177.02722 | 38969 ft | 485 kts | 0° |
| 2026-05-05 18:09 | -20.78504 | 177.03517 | 38968 ft | 485 kts | 0° |
| 2026-05-05 18:09 | -20.71825 | 177.04310 | 38963 ft | 484 kts | 0° |
| 2026-05-05 18:10 | -20.65143 | 177.05103 | 38960 ft | 484 kts | 0° |
| 2026-05-05 18:10 | -20.58467 | 177.05895 | 38963 ft | 484 kts | 0° |
| 2026-05-05 18:11 | -20.51782 | 177.06685 | 38968 ft | 489 kts | 0° |
| 2026-05-05 18:11 | -20.44949 | 177.07489 | 38972 ft | 501 kts | 0° |
| 2026-05-05 18:12 | -20.38003 | 177.08313 | 38948 ft | 503 kts | 1° |
| 2026-05-05 18:12 | -20.31078 | 177.09135 | 38947 ft | 501 kts | 1° |
| 2026-05-05 18:13 | -20.24186 | 177.09949 | 38946 ft | 501 kts | 1° |
| 2026-05-05 18:13 | -20.17277 | 177.10762 | 38945 ft | 500 kts | 1° |
| 2026-05-05 18:14 | -20.10405 | 177.11571 | 38923 ft | 500 kts | 1° |
| 2026-05-05 18:14 | -20.03523 | 177.12380 | 38939 ft | 499 kts | 1° |
| 2026-05-05 18:15 | -19.96636 | 177.13190 | 38937 ft | 499 kts | 1° |
| 2026-05-05 18:15 | -19.89795 | 177.13993 | 38938 ft | 499 kts | 1° |
| 2026-05-05 18:16 | -19.82914 | 177.14800 | 38935 ft | 499 kts | 1° |
| 2026-05-05 18:16 | -19.76030 | 177.15607 | 38912 ft | 498 kts | 1° |
| 2026-05-05 18:17 | -19.69159 | 177.16412 | 38922 ft | 497 kts | 1° |
| 2026-05-05 18:17 | -19.65702 | 177.16816 | 38354 ft | 505 kts | 1° |
| 2026-05-05 18:17 | -19.62210 | 177.17222 | 37703 ft | 507 kts | 1° |
| 2026-05-05 18:17 | -19.58700 | 177.17632 | 36990 ft | 509 kts | 1° |
| 2026-05-05 18:18 | -19.55177 | 177.18044 | 36302 ft | 514 kts | 1° |
| 2026-05-05 18:18 | -19.51606 | 177.18461 | 35538 ft | 518 kts | 1° |
| 2026-05-05 18:18 | -19.48024 | 177.18880 | 34691 ft | 520 kts | 2° |
| 2026-05-05 18:18 | -19.44429 | 177.19301 | 33992 ft | 519 kts | 2° |
| 2026-05-05 18:19 | -19.40860 | 177.19720 | 33270 ft | 516 kts | 2° |
| 2026-05-05 18:19 | -19.37319 | 177.20135 | 32669 ft | 510 kts | 2° |
| 2026-05-05 18:19 | -19.33819 | 177.20544 | 32081 ft | 504 kts | 2° |
| 2026-05-05 18:19 | -19.30357 | 177.20947 | 31501 ft | 499 kts | 2° |
| 2026-05-05 18:20 | -19.26952 | 177.21340 | 30907 ft | 494 kts | 2° |
| 2026-05-05 18:20 | -19.23555 | 177.21730 | 30363 ft | 489 kts | 2° |
| 2026-05-05 18:20 | -19.20195 | 177.22115 | 29766 ft | 484 kts | 2° |
| 2026-05-05 18:20 | -19.16875 | 177.22495 | 29143 ft | 478 kts | 2° |
| 2026-05-05 18:21 | -19.13594 | 177.22870 | 28542 ft | 472 kts | 2° |
| 2026-05-05 18:21 | -19.10355 | 177.23241 | 27963 ft | 467 kts | 2° |
| 2026-05-05 18:21 | -19.07169 | 177.23605 | 27398 ft | 461 kts | 2° |
| 2026-05-05 18:21 | -19.03991 | 177.23969 | 26859 ft | 456 kts | 2° |
| 2026-05-05 18:22 | -19.00854 | 177.24327 | 26294 ft | 452 kts | 2° |
| 2026-05-05 18:22 | -18.97749 | 177.24681 | 25748 ft | 448 kts | 3° |
| 2026-05-05 18:22 | -18.94671 | 177.25033 | 25182 ft | 445 kts | 3° |
| 2026-05-05 18:22 | -18.91607 | 177.25382 | 24621 ft | 443 kts | 3° |
| 2026-05-05 18:23 | -18.88555 | 177.25730 | 24062 ft | 441 kts | 3° |
| 2026-05-05 18:23 | -18.85523 | 177.26076 | 23502 ft | 439 kts | 4° |
| 2026-05-05 18:23 | -18.82501 | 177.26421 | 22846 ft | 433 kts | 4° |
| 2026-05-05 18:23 | -18.79545 | 177.26759 | 22285 ft | 426 kts | 4° |
| 2026-05-05 18:24 | -18.76618 | 177.27093 | 21735 ft | 422 kts | 4° |
| 2026-05-05 18:24 | -18.73712 | 177.27425 | 21189 ft | 419 kts | 4° |
| 2026-05-05 18:24 | -18.70888 | 177.27746 | 20658 ft | 415 kts | 4° |
| 2026-05-05 18:24 | -18.68030 | 177.28072 | 20130 ft | 412 kts | 4° |
| 2026-05-05 18:25 | -18.65198 | 177.28394 | 19570 ft | 409 kts | 4° |
| 2026-05-05 18:25 | -18.63327 | 177.28607 | 19203 ft | 405 kts | 4° |
| 2026-05-05 18:25 | -18.59672 | 177.29024 | 18481 ft | 391 kts | 4° |
| 2026-05-05 18:25 | -18.56972 | 177.29331 | 17927 ft | 390 kts | 4° |
| 2026-05-05 18:26 | -18.54286 | 177.29636 | 17356 ft | 388 kts | 4° |
| 2026-05-05 18:26 | -18.51623 | 177.29938 | 16817 ft | 384 kts | 4° |
| 2026-05-05 18:26 | -18.48984 | 177.30238 | 16288 ft | 380 kts | 5° |
| 2026-05-05 18:26 | -18.46378 | 177.30533 | 15757 ft | 373 kts | 5° |
| 2026-05-05 18:27 | -18.43820 | 177.30825 | 15243 ft | 369 kts | 5° |
| 2026-05-05 18:27 | -18.41283 | 177.31128 | 14726 ft | 366 kts | 8° |
| 2026-05-05 18:27 | -18.38866 | 177.31713 | 14491 ft | 355 kts | 15° |
| 2026-05-05 18:27 | -18.36540 | 177.32466 | 14253 ft | 347 kts | 18° |
| 2026-05-05 18:28 | -18.32013 | 177.34035 | 13455 ft | 342 kts | 18° |
| 2026-05-05 18:28 | -18.29748 | 177.34806 | 12803 ft | 344 kts | 18° |
| 2026-05-05 18:28 | -18.27466 | 177.35568 | 12242 ft | 343 kts | 18° |
| 2026-05-05 18:29 | -18.25207 | 177.36312 | 11783 ft | 338 kts | 18° |
| 2026-05-05 18:29 | -18.22952 | 177.37047 | 11181 ft | 340 kts | 18° |
| 2026-05-05 18:29 | -18.20722 | 177.37771 | 10808 ft | 333 kts | 18° |
| 2026-05-05 18:29 | -18.18539 | 177.38476 | 10489 ft | 325 kts | 18° |
| 2026-05-05 18:30 | -18.16399 | 177.39167 | 10108 ft | 320 kts | 18° |
| 2026-05-05 18:30 | -18.14294 | 177.39846 | 9861 ft | 311 kts | 18° |
| 2026-05-05 18:30 | -18.12264 | 177.40500 | 9662 ft | 301 kts | 18° |
| 2026-05-05 18:30 | -18.10281 | 177.41139 | 9231 ft | 299 kts | 18° |
| 2026-05-05 18:31 | -18.08304 | 177.41776 | 8532 ft | 299 kts | 18° |
| 2026-05-05 18:31 | -18.06371 | 177.42398 | 8247 ft | 284 kts | 18° |
| 2026-05-05 18:31 | -18.04502 | 177.43000 | 7758 ft | 279 kts | 18° |
| 2026-05-05 18:31 | -18.02654 | 177.43595 | 7199 ft | 278 kts | 18° |
| 2026-05-05 18:32 | -18.00821 | 177.44185 | 6698 ft | 275 kts | 18° |
| 2026-05-05 18:32 | -17.99006 | 177.44769 | 6185 ft | 272 kts | 18° |
| 2026-05-05 18:32 | -17.97211 | 177.45347 | 5696 ft | 267 kts | 18° |
| 2026-05-05 18:32 | -17.95443 | 177.45916 | 5344 ft | 266 kts | 19° |
| 2026-05-05 18:33 | -17.93674 | 177.46485 | 4975 ft | 266 kts | 19° |
| 2026-05-05 18:33 | -17.92082 | 177.46997 | 4665 ft | 267 kts | 19° |
| 2026-05-05 18:33 | -17.90304 | 177.47568 | 4421 ft | 262 kts | 19° |
| 2026-05-05 18:33 | -17.88593 | 177.48117 | 4274 ft | 253 kts | 19° |
| 2026-05-05 18:34 | -17.86928 | 177.48652 | 4149 ft | 246 kts | 20° |
| 2026-05-05 18:34 | -17.85417 | 177.49357 | 4045 ft | 234 kts | 38° |
| 2026-05-05 18:34 | -17.84051 | 177.50317 | 3657 ft | 240 kts | 26° |
| 2026-05-05 18:34 | -17.82438 | 177.50459 | 3306 ft | 232 kts | 348° |
| 2026-05-05 18:35 | -17.80878 | 177.50292 | 2796 ft | 219 kts | 11° |
| 2026-05-05 18:35 | -17.79463 | 177.50694 | 2639 ft | 211 kts | 27° |
| 2026-05-05 18:35 | -17.78191 | 177.51423 | 2228 ft | 200 kts | 37° |
| 2026-05-05 18:35 | -17.77099 | 177.52157 | 2160 ft | 176 kts | 38° |
| 2026-05-05 18:36 | -17.76176 | 177.52900 | 1910 ft | 158 kts | 52° |
| 2026-05-05 18:36 | -17.75257 | 177.53593 | 1759 ft | 172 kts | 19° |
| 2026-05-05 18:36 | -17.74127 | 177.53476 | 1661 ft | 153 kts | 343° |
| 2026-05-05 18:36 | -17.73391 | 177.52772 | 1306 ft | 143 kts | 296° |
| 2026-05-05 18:37 | -17.73087 | 177.51815 | 987 ft | 136 kts | 285° |
| 2026-05-05 18:37 | -17.72747 | 177.50901 | 598 ft | 134 kts | 295° |
| 2026-05-05 18:37 | -17.72419 | 177.50000 | 249 ft | 132 kts | 283° |
| 2026-05-05 18:37 | -17.72289 | 177.49079 | 167 ft | 131 kts | 270° |
| 2026-05-05 18:38 | -17.72340 | 177.48135 | 333 ft | 130 kts | 258° |
| 2026-05-05 18:38 | -17.72555 | 177.47200 | 332 ft | 133 kts | 250° |
| 2026-05-05 18:38 | -17.73010 | 177.46334 | 486 ft | 138 kts | 224° |
| 2026-05-05 18:38 | -17.73757 | 177.45725 | 397 ft | 136 kts | 214° |
| 2026-05-05 18:39 | -17.74492 | 177.45137 | 214 ft | 133 kts | 215° |
| 2026-05-05 18:39 | -17.75221 | 177.44562 | 49 ft | 132 kts | 215° |
| 2026-05-05 18:39 | -17.75900 | 177.44021 | 31 ft | 108 kts | 218° |
| 2026-05-05 18:39 | -17.76395 | 177.43621 | 31 ft | 73 kts | 217° |
| 2026-05-05 18:40 | -17.76767 | 177.43319 | 33 ft | 47 kts | 218° |
| 2026-05-05 18:40 | -17.76980 | 177.43148 | 31 ft | 33 kts | 217° |
| 2026-05-05 18:40 | -17.77152 | 177.43012 | 31 ft | 25 kts | 217° |
| 2026-05-05 18:40 | -17.77272 | 177.42926 | 30 ft | 16 kts | 212° |
| 2026-05-05 18:41 | -17.77289 | 177.42845 | 31 ft | 11 kts | 342° |
| 2026-05-05 18:41 | -17.77267 | 177.42862 | 31 ft | 0 kts | 62° |
| 2026-05-05 18:51 | -17.77266 | 177.42864 | 31 ft | 1 kts | 62° |
| 2026-05-05 18:52 | -17.77247 | 177.42908 | 31 ft | 13 kts | 64° |
| 2026-05-05 18:52 | -17.77156 | 177.43004 | 31 ft | 21 kts | 37° |
| 2026-05-05 18:52 | -17.77038 | 177.43095 | 30 ft | 21 kts | 36° |
| 2026-05-05 18:52 | -17.76922 | 177.43185 | 33 ft | 20 kts | 36° |
| 2026-05-05 18:53 | -17.76807 | 177.43283 | 33 ft | 24 kts | 38° |
| 2026-05-05 18:53 | -17.76647 | 177.43414 | 32 ft | 38 kts | 38° |
| 2026-05-05 18:53 | -17.76379 | 177.43631 | 29 ft | 57 kts | 38° |
| 2026-05-05 18:53 | -17.76070 | 177.43877 | 31 ft | 54 kts | 38° |
| 2026-05-05 18:54 | -17.75787 | 177.44111 | 33 ft | 50 kts | 38° |
| 2026-05-05 18:54 | -17.75584 | 177.44270 | 32 ft | 23 kts | 37° |
| 2026-05-05 18:54 | -17.75431 | 177.44395 | 29 ft | 36 kts | 38° |
| 2026-05-05 18:54 | -17.75235 | 177.44554 | 29 ft | 31 kts | 38° |
| 2026-05-05 18:55 | -17.75135 | 177.44636 | 30 ft | 13 kts | 40° |
| 2026-05-05 18:55 | -17.75119 | 177.44725 | 31 ft | 13 kts | 100° |
| 2026-05-05 18:55 | -17.75137 | 177.44815 | 32 ft | 13 kts | 104° |
| 2026-05-05 18:55 | -17.75159 | 177.44903 | 31 ft | 12 kts | 106° |
| 2026-05-05 18:56 | -17.75188 | 177.44947 | 31 ft | 2 kts | 181° |
| 2026-05-05 18:56 | -17.75203 | 177.44944 | 30 ft | 2 kts | 193° |
| 2026-05-05 18:56 | -17.75219 | 177.44940 | 29 ft | 2 kts | 193° |
| 2026-05-05 18:56 | -17.75233 | 177.44940 | 31 ft | 2 kts | 161° |
| 2026-05-05 18:57 | -17.75240 | 177.44953 | 31 ft | 2 kts | 113° |
| 2026-05-05 18:57 | -17.75243 | 177.44969 | 31 ft | 2 kts | 99° |
| 2026-05-05 18:57 | -17.75243 | 177.44984 | 29 ft | 2 kts | 88° |
| 2026-05-05 18:57 | -17.75246 | 177.44999 | 29 ft | 2 kts | 103° |
| 2026-05-05 18:58 | -17.75250 | 177.45013 | 30 ft | 2 kts | 106° |
| 2026-05-05 18:58 | -17.75251 | 177.45018 | 31 ft | 1 kts | 106° |
| 2026-05-05 18:58 | -17.75252 | 177.45020 | 31 ft | 0 kts | 106° |